createdAt,value
2023-02-12T00:01:08.180Z,13.97
2023-02-12T00:03:35.717Z,18.70
2023-02-12T00:06:03.329Z,17.60
2023-02-12T00:08:29.657Z,14.97
2023-02-12T00:10:56.219Z,15.80
2023-02-12T00:13:23.206Z,17.07
2023-02-12T00:15:50.130Z,23.33
2023-02-12T00:18:16.437Z,23.70
2023-02-12T00:20:42.972Z,18.27
2023-02-12T00:23:10.582Z,29.20
2023-02-12T00:25:40.920Z,35.43
2023-02-12T00:28:07.331Z,37.33
2023-02-12T00:30:34.759Z,41.70
2023-02-12T00:33:00.935Z,29.53
2023-02-12T00:35:27.455Z,32.63
2023-02-12T00:37:53.616Z,33.07
2023-02-12T00:40:20.244Z,46.43
2023-02-12T00:42:46.394Z,50.70
2023-02-12T00:45:13.118Z,35.03
2023-02-12T00:47:39.303Z,42.63
2023-02-12T00:50:06.572Z,58.10
2023-02-12T00:52:33.063Z,54.00
2023-02-12T00:54:59.528Z,37.77
2023-02-12T00:57:25.669Z,38.77
2023-02-12T00:59:52.092Z,23.90
2023-02-12T01:02:18.282Z,32.83
2023-02-12T01:04:46.517Z,32.53
2023-02-12T01:07:12.816Z,22.83
2023-02-12T01:09:39.267Z,27.90
2023-02-12T01:12:05.935Z,26.80
2023-02-12T01:14:32.524Z,28.70
2023-02-12T01:16:58.670Z,26.10
2023-02-12T01:19:25.368Z,29.40
2023-02-12T01:21:51.503Z,24.90
2023-02-12T01:24:17.976Z,20.70
2023-02-12T01:26:44.126Z,22.27
2023-02-12T01:29:10.775Z,20.23
2023-02-12T01:31:38.866Z,23.33
2023-02-12T01:34:07.070Z,24.30
2023-02-12T01:36:33.805Z,29.03
2023-02-12T01:39:02.110Z,23.33
2023-02-12T01:41:32.231Z,21.60
2023-02-12T01:44:09.128Z,21.23
2023-02-12T01:46:35.805Z,19.60
2023-02-12T01:49:06.028Z,19.87
2023-02-12T01:51:34.276Z,21.37
2023-02-12T01:54:07.247Z,23.47
2023-02-12T01:56:33.895Z,20.00
2023-02-12T01:59:00.651Z,20.50
2023-02-12T02:01:30.270Z,17.70
2023-02-12T02:04:14.146Z,20.83
2023-02-12T02:06:52.249Z,22.93
2023-02-12T02:09:19.178Z,16.53
2023-02-12T02:12:04.118Z,15.27
2023-02-12T02:14:33.703Z,16.33
2023-02-12T02:17:29.869Z,19.40
2023-02-12T02:20:12.274Z,20.50
2023-02-12T02:22:41.536Z,22.30
2023-02-12T02:25:29.220Z,21.00
2023-02-12T02:27:55.227Z,17.87
2023-02-12T02:30:44.714Z,18.10
2023-02-12T02:33:39.583Z,15.50
2023-02-12T02:36:24.858Z,17.60
2023-02-12T02:38:59.189Z,18.30
2023-02-12T02:41:35.391Z,21.13
2023-02-12T02:44:09.604Z,17.67
2023-02-12T02:46:44.178Z,19.43
2023-02-12T02:49:17.936Z,18.60
2023-02-12T02:51:49.156Z,17.87
2023-02-12T02:54:33.052Z,16.13
2023-02-12T02:57:07.397Z,20.07
2023-02-12T02:59:42.001Z,17.80
2023-02-12T03:02:13.480Z,17.07
2023-02-12T03:04:49.321Z,19.00
2023-02-12T03:07:24.669Z,15.27
2023-02-12T03:10:00.544Z,14.93
2023-02-12T03:12:54.594Z,17.10
2023-02-12T03:15:36.562Z,22.53
2023-02-12T03:18:07.711Z,19.23
2023-02-12T03:20:41.363Z,22.70
2023-02-12T03:23:16.656Z,23.53
2023-02-12T03:25:56.372Z,22.90
2023-02-12T03:28:29.231Z,22.73
2023-02-12T03:31:17.738Z,23.63
2023-02-12T03:34:03.090Z,20.40
2023-02-12T03:36:41.231Z,20.03
2023-02-12T03:39:19.379Z,21.70
2023-02-12T03:41:57.368Z,19.20
2023-02-12T03:44:43.767Z,22.00
2023-02-12T03:47:31.837Z,18.03
2023-02-12T03:50:22.451Z,15.33
2023-02-12T03:52:50.058Z,15.73
2023-02-12T03:55:16.882Z,13.10
2023-02-12T03:57:52.343Z,16.57
2023-02-12T04:00:23.111Z,18.57
2023-02-12T04:02:51.280Z,18.67
2023-02-12T04:05:26.504Z,17.20
2023-02-12T04:07:56.234Z,16.30
2023-02-12T04:10:31.846Z,14.47
2023-02-12T04:13:14.908Z,15.33
2023-02-12T04:15:50.991Z,15.50
2023-02-12T04:18:23.717Z,19.77
2023-02-12T04:21:22.455Z,15.77
2023-02-12T04:24:41.510Z,15.50
2023-02-12T04:27:25.713Z,15.90
2023-02-12T04:30:04.929Z,16.17
2023-02-12T04:32:45.745Z,16.63
2023-02-12T04:35:16.913Z,15.87
2023-02-12T04:37:48.424Z,16.67
2023-02-12T04:40:17.634Z,16.67
2023-02-12T04:42:46.792Z,16.10
2023-02-12T04:45:20.223Z,18.00
2023-02-12T04:47:46.941Z,15.43
2023-02-12T04:50:13.666Z,17.90
2023-02-12T04:52:40.492Z,15.60
2023-02-12T04:55:06.978Z,16.10
2023-02-12T04:57:33.745Z,14.27
2023-02-12T05:00:00.315Z,14.40
2023-02-12T05:02:26.920Z,15.87
2023-02-12T05:04:53.307Z,14.43
2023-02-12T05:07:20.081Z,14.10
2023-02-12T05:09:46.380Z,16.13
2023-02-12T05:12:13.252Z,18.57
2023-02-12T05:14:39.613Z,18.50
2023-02-12T05:17:06.326Z,16.50
2023-02-12T05:19:32.656Z,17.90
2023-02-12T05:21:59.379Z,17.30
2023-02-12T05:24:25.553Z,14.77
2023-02-12T05:26:52.460Z,16.67
2023-02-12T05:29:18.994Z,15.10
2023-02-12T05:31:45.676Z,19.07
2023-02-12T05:34:12.622Z,14.60
2023-02-12T05:36:39.713Z,14.23
2023-02-12T05:39:06.947Z,14.03
2023-02-12T05:41:36.811Z,18.23
2023-02-12T05:44:04.947Z,19.13
2023-02-12T05:46:32.066Z,21.70
2023-02-12T05:48:58.364Z,18.43
2023-02-12T05:51:26.463Z,14.97
2023-02-12T05:53:58.043Z,12.17
2023-02-12T05:56:29.010Z,17.37
2023-02-12T05:59:06.382Z,13.87
2023-02-12T06:01:34.386Z,16.10
2023-02-12T06:04:01.681Z,19.53
2023-02-12T06:06:29.223Z,16.27
2023-02-12T06:08:56.599Z,14.40
2023-02-12T06:11:23.577Z,13.70
2023-02-12T06:13:50.012Z,12.07
2023-02-12T06:16:22.101Z,13.43
2023-02-12T06:18:48.666Z,14.97
2023-02-12T06:21:17.043Z,15.73
2023-02-12T06:23:43.316Z,16.07
2023-02-12T06:26:10.090Z,13.83
2023-02-12T06:28:36.397Z,13.37
2023-02-12T06:31:04.033Z,16.13
2023-02-12T06:33:30.604Z,14.37
2023-02-12T06:35:57.458Z,12.07
2023-02-12T06:38:23.783Z,12.33
2023-02-12T06:40:50.272Z,15.40
2023-02-12T06:43:16.508Z,17.97
2023-02-12T06:45:42.964Z,16.37
2023-02-12T06:48:09.111Z,17.90
2023-02-12T06:50:35.611Z,16.03
2023-02-12T06:53:01.765Z,11.73
2023-02-12T06:55:28.243Z,13.70
2023-02-12T06:57:54.730Z,16.10
2023-02-12T07:00:21.688Z,14.93
2023-02-12T07:02:55.192Z,10.37
2023-02-12T07:05:23.372Z,10.37
2023-02-12T07:07:49.564Z,9.30
2023-02-12T07:10:17.190Z,12.43
2023-02-12T07:12:43.753Z,13.87
2023-02-12T07:15:10.568Z,12.37
2023-02-12T07:17:36.977Z,17.77
2023-02-12T07:20:04.579Z,15.67
2023-02-12T07:22:31.128Z,15.30
2023-02-12T07:24:57.619Z,15.03
2023-02-12T07:27:23.935Z,14.97
2023-02-12T07:29:51.153Z,15.67
2023-02-12T07:32:17.571Z,14.33
2023-02-12T07:34:44.138Z,17.53
2023-02-12T07:37:10.781Z,19.63
2023-02-12T07:39:37.269Z,15.80
2023-02-12T07:42:03.751Z,15.90
2023-02-12T07:44:31.776Z,18.67
2023-02-12T07:46:57.999Z,19.10
2023-02-12T07:49:24.736Z,21.13
2023-02-12T07:51:51.228Z,16.30
2023-02-12T07:54:17.901Z,19.70
2023-02-12T07:56:46.216Z,16.13
2023-02-12T07:59:15.424Z,22.23
2023-02-12T08:01:52.900Z,22.40
2023-02-12T08:04:22.451Z,16.77
2023-02-12T08:06:50.793Z,16.70
2023-02-12T08:09:20.349Z,27.93
2023-02-12T08:11:47.249Z,21.60
2023-02-12T08:14:16.327Z,28.30
2023-02-12T08:16:44.908Z,29.23
2023-02-12T08:19:19.049Z,30.13
2023-02-12T08:21:49.576Z,23.87
2023-02-12T08:24:15.891Z,26.33
2023-02-12T08:26:43.565Z,27.63
2023-02-12T08:29:13.473Z,27.47
2023-02-12T08:31:46.290Z,27.33
2023-02-12T08:34:21.585Z,23.23
2023-02-12T08:36:49.998Z,24.40
2023-02-12T08:39:17.718Z,23.20
2023-02-12T08:41:45.179Z,21.30
2023-02-12T08:44:12.526Z,18.27
2023-02-12T08:46:43.333Z,20.87
2023-02-12T08:49:24.319Z,15.10
2023-02-12T08:51:52.690Z,20.37
2023-02-12T08:54:25.192Z,20.07
2023-02-12T08:56:59.977Z,23.33
2023-02-12T08:59:26.614Z,23.73
2023-02-12T09:01:53.694Z,18.10
2023-02-12T09:04:27.683Z,16.37
2023-02-12T09:06:54.674Z,23.37
2023-02-12T09:09:21.134Z,17.80
2023-02-12T09:11:48.626Z,18.97
2023-02-12T09:14:16.980Z,23.40
2023-02-12T09:16:44.136Z,24.30
2023-02-12T09:19:14.515Z,18.83
2023-02-12T09:21:42.111Z,23.00
2023-02-12T09:24:08.986Z,20.53
2023-02-12T09:26:35.987Z,24.77
2023-02-12T09:29:03.810Z,20.43
2023-02-12T09:31:31.984Z,19.60
2023-02-12T09:34:01.636Z,23.73
2023-02-12T09:36:29.367Z,22.90
2023-02-12T09:38:56.809Z,25.70
2023-02-12T09:41:54.544Z,65.77
2023-02-12T09:44:42.439Z,30.77
2023-02-12T09:47:13.185Z,27.50
2023-02-12T09:49:42.581Z,29.03
2023-02-12T09:52:28.799Z,32.20
2023-02-12T09:54:55.813Z,27.57
2023-02-12T09:57:35.505Z,27.83
2023-02-12T10:00:21.419Z,25.80
2023-02-12T10:02:51.474Z,118.77
2023-02-12T10:05:40.982Z,46.03
2023-02-12T10:08:25.095Z,34.20
2023-02-12T10:10:51.537Z,32.00
2023-02-12T10:13:47.496Z,29.43
2023-02-12T10:16:58.214Z,29.87
2023-02-12T10:19:36.892Z,29.40
2023-02-12T10:22:21.889Z,29.53
2023-02-12T10:24:56.222Z,35.03
2023-02-12T10:27:33.146Z,31.77
2023-02-12T10:30:00.576Z,31.37
2023-02-12T10:32:32.476Z,39.77
2023-02-12T10:34:59.438Z,36.67
2023-02-12T10:37:39.654Z,37.30
2023-02-12T10:40:16.301Z,54.53
2023-02-12T10:42:46.335Z,37.57
2023-02-12T10:45:15.833Z,37.50
2023-02-12T10:47:49.785Z,39.33
2023-02-12T10:50:33.701Z,36.30
2023-02-12T10:53:03.084Z,36.67
2023-02-12T10:55:32.776Z,39.43
2023-02-12T10:58:01.412Z,38.33
2023-02-12T11:00:34.726Z,37.07
2023-02-12T11:03:01.000Z,46.87
2023-02-12T11:05:30.366Z,36.33
2023-02-12T11:07:59.725Z,32.77
2023-02-12T11:10:31.265Z,26.60
2023-02-12T11:12:59.244Z,24.73
2023-02-12T11:15:30.632Z,25.13
2023-02-12T11:18:05.435Z,22.77
2023-02-12T11:20:40.639Z,15.23
2023-02-12T11:23:29.443Z,16.13
2023-02-12T11:25:59.148Z,15.80
2023-02-12T11:28:26.847Z,19.90
2023-02-12T11:31:00.216Z,16.97
2023-02-12T11:33:34.758Z,18.60
2023-02-12T11:36:12.936Z,18.13
2023-02-12T11:38:52.498Z,20.27
2023-02-12T11:41:25.405Z,22.17
2023-02-12T11:43:52.990Z,23.10
2023-02-12T11:46:25.907Z,21.37
2023-02-12T11:48:54.931Z,16.97
2023-02-12T11:51:29.460Z,15.77
2023-02-12T11:54:01.457Z,16.50
2023-02-12T11:56:43.924Z,15.13
2023-02-12T11:59:37.801Z,15.83
2023-02-12T12:02:27.007Z,19.27
2023-02-12T12:05:02.558Z,17.07
2023-02-12T12:07:33.530Z,12.53
2023-02-12T12:10:07.074Z,14.87
2023-02-12T12:12:47.573Z,15.50
2023-02-12T12:15:51.985Z,14.70
2023-02-12T12:19:06.860Z,16.73
2023-02-12T12:21:33.456Z,22.27
2023-02-12T12:24:26.248Z,26.10
2023-02-12T12:27:02.509Z,18.53
2023-02-12T12:29:49.949Z,16.43
2023-02-12T12:32:20.114Z,13.83
2023-02-12T12:34:47.176Z,23.77
2023-02-12T12:37:34.685Z,19.87
2023-02-12T12:40:07.601Z,24.83
2023-02-12T12:42:52.487Z,21.63
2023-02-12T12:45:28.551Z,18.57
2023-02-12T12:48:28.500Z,17.70
2023-02-12T12:51:22.936Z,17.13
2023-02-12T12:53:54.571Z,19.50
2023-02-12T12:56:27.932Z,19.47
2023-02-12T12:59:26.216Z,20.83
2023-02-12T13:02:15.461Z,17.67
2023-02-12T13:04:45.057Z,20.07
2023-02-12T13:07:26.781Z,18.57
2023-02-12T13:10:17.954Z,21.70
2023-02-12T13:13:00.063Z,26.87
2023-02-12T13:15:46.096Z,21.60
2023-02-12T13:19:07.304Z,20.13
2023-02-12T13:21:57.335Z,18.43
2023-02-12T13:24:42.211Z,19.17
2023-02-12T13:27:18.365Z,21.23
2023-02-12T13:29:51.996Z,18.30
2023-02-12T13:32:29.033Z,20.80
2023-02-12T13:34:57.202Z,18.13
2023-02-12T13:37:36.024Z,22.50
2023-02-12T13:40:06.506Z,20.13
2023-02-12T13:43:06.421Z,22.20
2023-02-12T13:45:33.336Z,22.47
2023-02-12T13:48:18.070Z,21.33
2023-02-12T13:51:01.032Z,22.77
2023-02-12T13:53:46.953Z,21.90
2023-02-12T13:56:39.887Z,22.23
2023-02-12T13:59:34.960Z,16.83
2023-02-12T14:02:22.317Z,19.47
2023-02-12T14:04:59.281Z,18.47
2023-02-12T14:07:49.760Z,19.03
2023-02-12T14:10:34.217Z,15.47
2023-02-12T14:13:24.991Z,17.20
2023-02-12T14:15:55.696Z,15.27
2023-02-12T14:18:34.775Z,20.93
2023-02-12T14:21:13.439Z,16.00
2023-02-12T14:23:41.968Z,19.93
2023-02-12T14:26:12.732Z,24.40
2023-02-12T14:29:01.253Z,17.77
2023-02-12T14:31:33.017Z,18.37
2023-02-12T14:34:06.781Z,17.00
2023-02-12T14:36:38.095Z,26.80
2023-02-12T14:39:29.122Z,18.77
2023-02-12T14:42:15.520Z,15.43
2023-02-12T14:44:45.675Z,16.93
2023-02-12T14:47:30.199Z,19.77
2023-02-12T14:50:02.367Z,23.10
2023-02-12T14:52:39.094Z,17.33
2023-02-12T14:55:18.418Z,18.47
2023-02-12T14:57:45.716Z,11.40
2023-02-12T15:00:21.976Z,14.60
2023-02-12T15:03:21.717Z,20.23
2023-02-12T15:06:06.242Z,26.87
2023-02-12T15:09:00.601Z,15.00
2023-02-12T15:11:46.688Z,14.03
2023-02-12T15:14:31.374Z,17.33
2023-02-12T15:17:09.395Z,15.50
2023-02-12T15:19:47.671Z,16.03
2023-02-12T15:22:36.361Z,22.27
2023-02-12T15:25:29.305Z,23.03
2023-02-12T15:28:35.941Z,23.13
2023-02-12T15:31:05.667Z,20.13
2023-02-12T15:33:34.728Z,19.57
2023-02-12T15:36:03.109Z,18.97
2023-02-12T15:38:35.590Z,19.47
2023-02-12T15:41:03.559Z,16.93
2023-02-12T15:43:35.739Z,17.97
2023-02-12T15:46:08.317Z,14.43
2023-02-12T15:48:36.740Z,22.37
2023-02-12T15:51:21.284Z,14.17
2023-02-12T15:53:49.054Z,18.43
2023-02-12T15:56:21.037Z,20.20
2023-02-12T15:58:51.747Z,14.63
2023-02-12T16:01:21.119Z,13.47
2023-02-12T16:03:51.298Z,15.90
2023-02-12T16:06:19.593Z,19.73
2023-02-12T16:08:49.685Z,13.90
2023-02-12T16:11:20.567Z,13.40
2023-02-12T16:13:55.037Z,19.10
2023-02-12T16:16:25.895Z,12.03
2023-02-12T16:19:26.832Z,11.33
2023-02-12T16:22:07.806Z,12.50
2023-02-12T16:24:38.537Z,12.67
2023-02-12T16:27:14.416Z,14.77
2023-02-12T16:29:47.898Z,10.00
2023-02-12T16:32:34.937Z,12.00
2023-02-12T16:35:14.055Z,8.87
2023-02-12T16:37:45.154Z,11.23
2023-02-12T16:40:12.119Z,10.27
2023-02-12T16:42:47.221Z,13.53
2023-02-12T16:45:26.188Z,12.27
2023-02-12T16:48:08.408Z,10.37
2023-02-12T16:50:46.024Z,11.47
2023-02-12T16:53:29.298Z,9.33
2023-02-12T16:55:57.637Z,15.60
2023-02-12T16:58:25.983Z,10.50
2023-02-12T17:00:57.688Z,10.30
2023-02-12T17:03:25.611Z,11.77
2023-02-12T17:05:53.174Z,12.43
2023-02-12T17:08:22.833Z,8.63
2023-02-12T17:10:50.496Z,9.43
2023-02-12T17:13:17.648Z,10.40
2023-02-12T17:15:57.578Z,11.30
2023-02-12T17:18:25.025Z,11.47
2023-02-12T17:20:58.822Z,11.20
2023-02-12T17:23:26.191Z,10.50
2023-02-12T17:25:54.047Z,12.53
2023-02-12T17:28:22.228Z,13.63
2023-02-12T17:30:49.160Z,14.20
2023-02-12T17:33:15.936Z,13.13
2023-02-12T17:35:42.786Z,18.67
2023-02-12T17:38:09.203Z,23.67
2023-02-12T17:40:37.627Z,18.73
2023-02-12T17:43:05.594Z,19.23
2023-02-12T17:45:33.189Z,19.57
2023-02-12T17:47:59.746Z,22.23
2023-02-12T17:50:26.524Z,19.60
2023-02-12T17:52:53.145Z,22.00
2023-02-12T17:55:19.918Z,22.07
2023-02-12T17:57:51.224Z,23.10
2023-02-12T18:00:18.924Z,23.83
2023-02-12T18:02:45.545Z,20.70
2023-02-12T18:05:12.479Z,23.53
2023-02-12T18:07:39.550Z,24.03
2023-02-12T18:10:09.153Z,22.07
2023-02-12T18:12:39.753Z,22.43
2023-02-12T18:15:08.224Z,19.87
2023-02-12T18:17:35.883Z,24.63
2023-02-12T18:20:05.219Z,66.57
2023-02-12T18:22:33.723Z,25.77
2023-02-12T18:25:00.796Z,21.77
2023-02-12T18:27:27.462Z,21.43
2023-02-12T18:29:56.311Z,20.33
2023-02-12T18:32:23.880Z,20.93
2023-02-12T18:34:50.784Z,21.97
2023-02-12T18:37:17.185Z,21.20
2023-02-12T18:39:43.988Z,21.07
2023-02-12T18:42:10.304Z,20.27
2023-02-12T18:44:37.164Z,21.43
2023-02-12T18:47:03.611Z,21.77
2023-02-12T18:49:30.474Z,21.07
2023-02-12T18:51:57.171Z,23.77
2023-02-12T18:54:24.112Z,20.03
2023-02-12T18:56:52.339Z,25.30
2023-02-12T18:59:20.431Z,23.60
2023-02-12T19:01:48.892Z,25.03
2023-02-12T19:04:17.669Z,29.30
2023-02-12T19:06:48.177Z,30.37
2023-02-12T19:09:20.158Z,30.83
2023-02-12T19:11:48.895Z,28.60
2023-02-12T19:14:17.717Z,28.10
2023-02-12T19:16:44.869Z,28.17
2023-02-12T19:19:12.636Z,30.50
2023-02-12T19:21:39.269Z,28.37
2023-02-12T19:24:06.685Z,30.20
2023-02-12T19:26:34.909Z,29.43
2023-02-12T19:29:02.227Z,29.00
2023-02-12T19:31:37.702Z,27.63
2023-02-12T19:34:07.570Z,29.03
2023-02-12T19:36:36.071Z,32.50
2023-02-12T19:39:05.141Z,26.00
2023-02-12T19:41:32.569Z,38.33
2023-02-12T19:44:00.768Z,39.67
2023-02-12T19:46:30.489Z,28.47
2023-02-12T19:52:16.934Z,31.57
2023-02-12T19:54:44.885Z,34.10
2023-02-12T19:57:13.245Z,29.10
2023-02-12T19:59:41.160Z,27.87
2023-02-12T20:02:09.826Z,33.37
2023-02-12T20:04:36.680Z,29.33
2023-02-12T20:07:05.324Z,28.27
2023-02-12T20:09:32.199Z,29.60
2023-02-12T20:11:59.195Z,30.50
2023-02-12T20:14:26.280Z,23.87
2023-02-12T20:16:57.847Z,29.10
2023-02-12T20:19:28.458Z,26.23
2023-02-12T20:21:56.799Z,29.40
2023-02-12T20:24:26.211Z,27.67
2023-02-12T20:26:53.805Z,29.40
2023-02-12T20:29:21.301Z,26.83
2023-02-12T20:31:48.355Z,34.57
2023-02-12T20:34:17.647Z,20.70
2023-02-12T20:36:45.446Z,26.90
2023-02-12T20:39:15.247Z,26.47
2023-02-12T20:41:41.810Z,23.13
2023-02-12T20:44:15.707Z,26.60
2023-02-12T20:46:52.406Z,20.53
2023-02-12T20:49:24.842Z,24.53
2023-02-12T20:51:52.189Z,22.57
2023-02-12T20:54:18.717Z,22.40
2023-02-12T20:56:45.401Z,23.47
2023-02-12T20:59:12.187Z,19.20
2023-02-12T21:01:40.727Z,21.43
2023-02-12T21:04:10.643Z,20.73
2023-02-12T21:06:39.529Z,19.57
2023-02-12T21:09:09.160Z,17.87
2023-02-12T21:11:36.791Z,19.00
2023-02-12T21:14:20.898Z,25.70
2023-02-12T21:16:49.860Z,23.10
2023-02-12T21:19:18.229Z,23.03
2023-02-12T21:21:45.524Z,22.63
2023-02-12T21:24:18.995Z,24.87
2023-02-12T21:26:45.563Z,24.53
2023-02-12T21:29:12.911Z,25.37
2023-02-12T21:31:42.345Z,23.63
2023-02-12T21:34:13.124Z,21.67
2023-02-12T21:36:41.594Z,21.77
2023-02-12T21:39:11.985Z,23.07
2023-02-12T21:41:40.557Z,24.30
2023-02-12T21:44:12.039Z,23.83
2023-02-12T21:46:38.848Z,24.60
2023-02-12T21:49:06.645Z,23.03
2023-02-12T21:51:39.536Z,27.33
2023-02-12T21:54:12.592Z,32.67
2023-02-12T21:56:40.330Z,25.73
2023-02-12T21:59:11.026Z,24.30
2023-02-12T22:01:41.923Z,25.37
2023-02-12T22:04:09.439Z,28.20
2023-02-12T22:06:48.120Z,23.50
2023-02-12T22:09:16.882Z,30.77
2023-02-12T22:11:43.812Z,25.93
2023-02-12T22:14:16.461Z,26.00
2023-02-12T22:16:43.544Z,27.53
2023-02-12T22:19:10.589Z,30.40
2023-02-12T22:21:39.763Z,29.10
2023-02-12T22:24:10.101Z,23.33
2023-02-12T22:26:36.400Z,19.23
2023-02-12T22:29:08.353Z,18.73
2023-02-12T22:31:37.096Z,25.00
2023-02-12T22:34:06.389Z,22.73
2023-02-12T22:36:35.581Z,18.93
2023-02-12T22:39:03.204Z,22.70
2023-02-12T22:41:29.788Z,19.47
2023-02-12T22:44:01.107Z,22.80
2023-02-12T22:46:27.727Z,20.03
2023-02-12T22:48:54.322Z,16.50
2023-02-12T22:51:26.826Z,21.07
2023-02-12T22:53:54.544Z,15.80
2023-02-12T22:56:21.659Z,18.03
2023-02-12T22:58:48.664Z,19.47
2023-02-12T23:01:17.114Z,14.90
2023-02-12T23:03:44.924Z,17.40
2023-02-12T23:06:14.145Z,15.80
2023-02-12T23:08:41.424Z,14.20
2023-02-12T23:11:08.578Z,14.97
2023-02-12T23:13:35.922Z,14.50
2023-02-12T23:16:03.431Z,12.53
2023-02-12T23:18:30.738Z,20.83
2023-02-12T23:20:57.635Z,18.97
2023-02-12T23:23:24.613Z,16.10
2023-02-12T23:25:50.856Z,18.17
2023-02-12T23:28:17.633Z,18.60
2023-02-12T23:30:44.072Z,19.13
2023-02-12T23:33:10.815Z,11.23
2023-02-12T23:35:36.989Z,14.90
2023-02-12T23:38:03.720Z,15.63
2023-02-12T23:40:31.262Z,17.23
2023-02-12T23:42:57.853Z,18.33
2023-02-12T23:45:24.101Z,11.90
2023-02-12T23:47:50.616Z,17.13
2023-02-12T23:50:16.912Z,13.27
2023-02-12T23:52:43.391Z,16.13
2023-02-12T23:55:09.704Z,15.67
2023-02-12T23:57:36.085Z,17.33
